sensor_id;sensor_type;location;lat;lon;timestamp;P1;durP1;ratioP1;P2;durP2;ratioP2
84897;SDS011;75162;42.120;21.734;2024-01-25T00:01:09;78.07;;;39.78;;
84897;SDS011;75162;42.120;21.734;2024-01-25T00:03:35;78.72;;;38.25;;
84897;SDS011;75162;42.120;21.734;2024-01-25T00:06:01;81.93;;;38.70;;
84897;SDS011;75162;42.120;21.734;2024-01-25T00:08:28;70.65;;;37.58;;
84897;SDS011;75162;42.120;21.734;2024-01-25T00:10:54;84.18;;;36.10;;
84897;SDS011;75162;42.120;21.734;2024-01-25T00:13:20;66.18;;;33.20;;
84897;SDS011;75162;42.120;21.734;2024-01-25T00:15:46;67.97;;;33.95;;
84897;SDS011;75162;42.120;21.734;2024-01-25T00:18:12;70.20;;;34.80;;
84897;SDS011;75162;42.120;21.734;2024-01-25T00:20:38;68.47;;;34.65;;
84897;SDS011;75162;42.120;21.734;2024-01-25T00:23:05;74.22;;;36.60;;
84897;SDS011;75162;42.120;21.734;2024-01-25T00:25:32;69.90;;;35.33;;
84897;SDS011;75162;42.120;21.734;2024-01-25T00:27:58;67.85;;;35.33;;
84897;SDS011;75162;42.120;21.734;2024-01-25T00:30:24;69.65;;;33.15;;
84897;SDS011;75162;42.120;21.734;2024-01-25T00:32:50;57.67;;;30.75;;
84897;SDS011;75162;42.120;21.734;2024-01-25T00:35:16;70.32;;;33.88;;
84897;SDS011;75162;42.120;21.734;2024-01-25T00:37:42;66.50;;;34.70;;
84897;SDS011;75162;42.120;21.734;2024-01-25T00:40:08;61.95;;;34.60;;
84897;SDS011;75162;42.120;21.734;2024-01-25T00:42:43;72.38;;;34.80;;
84897;SDS011;75162;42.120;21.734;2024-01-25T00:45:09;65.80;;;34.13;;
84897;SDS011;75162;42.120;21.734;2024-01-25T00:47:36;69.90;;;34.85;;
84897;SDS011;75162;42.120;21.734;2024-01-25T00:50:02;61.03;;;32.35;;
84897;SDS011;75162;42.120;21.734;2024-01-25T00:52:29;66.20;;;32.20;;
84897;SDS011;75162;42.120;21.734;2024-01-25T00:54:55;67.30;;;34.22;;
84897;SDS011;75162;42.120;21.734;2024-01-25T00:57:21;65.80;;;35.28;;
84897;SDS011;75162;42.120;21.734;2024-01-25T00:59:48;65.72;;;33.10;;
84897;SDS011;75162;42.120;21.734;2024-01-25T01:02:14;64.80;;;32.97;;
84897;SDS011;75162;42.120;21.734;2024-01-25T01:04:40;67.97;;;32.35;;
84897;SDS011;75162;42.120;21.734;2024-01-25T01:07:07;75.43;;;36.88;;
84897;SDS011;75162;42.120;21.734;2024-01-25T01:09:33;56.88;;;30.02;;
84897;SDS011;75162;42.120;21.734;2024-01-25T01:11:59;58.80;;;30.77;;
84897;SDS011;75162;42.120;21.734;2024-01-25T01:14:25;58.55;;;30.75;;
84897;SDS011;75162;42.120;21.734;2024-01-25T01:16:51;49.40;;;27.30;;
84897;SDS011;75162;42.120;21.734;2024-01-25T01:19:17;49.83;;;26.42;;
84897;SDS011;75162;42.120;21.734;2024-01-25T01:21:43;50.53;;;24.75;;
84897;SDS011;75162;42.120;21.734;2024-01-25T01:24:10;53.65;;;23.50;;
84897;SDS011;75162;42.120;21.734;2024-01-25T01:26:36;48.83;;;26.08;;
84897;SDS011;75162;42.120;21.734;2024-01-25T01:29:02;53.05;;;25.73;;
84897;SDS011;75162;42.120;21.734;2024-01-25T01:31:28;46.17;;;24.33;;
84897;SDS011;75162;42.120;21.734;2024-01-25T01:33:55;53.83;;;27.15;;
84897;SDS011;75162;42.120;21.734;2024-01-25T01:36:23;48.35;;;25.02;;
84897;SDS011;75162;42.120;21.734;2024-01-25T01:38:49;50.10;;;24.23;;
84897;SDS011;75162;42.120;21.734;2024-01-25T01:41:15;48.33;;;23.38;;
84897;SDS011;75162;42.120;21.734;2024-01-25T01:43:41;47.28;;;25.05;;
84897;SDS011;75162;42.120;21.734;2024-01-25T01:46:52;50.20;;;26.27;;
84897;SDS011;75162;42.120;21.734;2024-01-25T01:48:53;57.65;;;27.70;;
84897;SDS011;75162;42.120;21.734;2024-01-25T01:51:20;53.78;;;26.30;;
84897;SDS011;75162;42.120;21.734;2024-01-25T01:53:46;49.97;;;24.88;;
84897;SDS011;75162;42.120;21.734;2024-01-25T01:56:12;48.50;;;25.25;;
84897;SDS011;75162;42.120;21.734;2024-01-25T01:58:38;57.13;;;26.73;;
84897;SDS011;75162;42.120;21.734;2024-01-25T02:01:05;51.35;;;25.02;;
84897;SDS011;75162;42.120;21.734;2024-01-25T02:03:31;51.72;;;25.33;;
84897;SDS011;75162;42.120;21.734;2024-01-25T02:05:57;54.95;;;24.63;;
84897;SDS011;75162;42.120;21.734;2024-01-25T02:08:28;50.60;;;24.73;;
84897;SDS011;75162;42.120;21.734;2024-01-25T02:10:54;46.95;;;24.05;;
84897;SDS011;75162;42.120;21.734;2024-01-25T02:13:20;54.17;;;24.55;;
84897;SDS011;75162;42.120;21.734;2024-01-25T02:15:47;47.95;;;25.08;;
84897;SDS011;75162;42.120;21.734;2024-01-25T02:18:13;54.85;;;25.40;;
84897;SDS011;75162;42.120;21.734;2024-01-25T02:20:40;53.13;;;26.88;;
84897;SDS011;75162;42.120;21.734;2024-01-25T02:23:06;53.17;;;25.35;;
84897;SDS011;75162;42.120;21.734;2024-01-25T02:25:32;54.95;;;26.50;;
84897;SDS011;75162;42.120;21.734;2024-01-25T02:27:58;49.45;;;24.98;;
84897;SDS011;75162;42.120;21.734;2024-01-25T02:30:24;51.05;;;26.30;;
84897;SDS011;75162;42.120;21.734;2024-01-25T02:32:50;50.15;;;25.35;;
84897;SDS011;75162;42.120;21.734;2024-01-25T02:35:17;48.67;;;24.05;;
84897;SDS011;75162;42.120;21.734;2024-01-25T02:37:43;42.15;;;23.13;;
84897;SDS011;75162;42.120;21.734;2024-01-25T02:40:10;34.85;;;17.63;;
84897;SDS011;75162;42.120;21.734;2024-01-25T02:42:36;31.73;;;15.18;;
84897;SDS011;75162;42.120;21.734;2024-01-25T02:45:02;28.17;;;13.48;;
84897;SDS011;75162;42.120;21.734;2024-01-25T02:47:28;25.48;;;11.63;;
84897;SDS011;75162;42.120;21.734;2024-01-25T02:49:54;24.08;;;11.10;;
84897;SDS011;75162;42.120;21.734;2024-01-25T02:52:20;20.50;;;11.07;;
84897;SDS011;75162;42.120;21.734;2024-01-25T02:54:46;18.65;;;10.77;;
84897;SDS011;75162;42.120;21.734;2024-01-25T02:57:14;23.10;;;11.70;;
84897;SDS011;75162;42.120;21.734;2024-01-25T02:59:40;22.20;;;11.32;;
84897;SDS011;75162;42.120;21.734;2024-01-25T03:02:06;28.05;;;13.43;;
84897;SDS011;75162;42.120;21.734;2024-01-25T03:04:32;24.05;;;13.40;;
84897;SDS011;75162;42.120;21.734;2024-01-25T03:06:58;30.50;;;14.70;;
84897;SDS011;75162;42.120;21.734;2024-01-25T03:09:24;32.63;;;15.57;;
84897;SDS011;75162;42.120;21.734;2024-01-25T03:11:50;32.60;;;14.90;;
84897;SDS011;75162;42.120;21.734;2024-01-25T03:14:17;29.90;;;15.35;;
84897;SDS011;75162;42.120;21.734;2024-01-25T03:16:43;37.33;;;17.15;;
84897;SDS011;75162;42.120;21.734;2024-01-25T03:19:10;29.80;;;16.35;;
84897;SDS011;75162;42.120;21.734;2024-01-25T03:21:36;33.38;;;17.15;;
84897;SDS011;75162;42.120;21.734;2024-01-25T03:24:02;33.72;;;16.45;;
84897;SDS011;75162;42.120;21.734;2024-01-25T03:26:28;35.15;;;16.88;;
84897;SDS011;75162;42.120;21.734;2024-01-25T03:28:54;31.55;;;16.38;;
84897;SDS011;75162;42.120;21.734;2024-01-25T03:31:20;34.15;;;17.27;;
84897;SDS011;75162;42.120;21.734;2024-01-25T03:33:46;31.02;;;15.98;;
84897;SDS011;75162;42.120;21.734;2024-01-25T03:36:15;35.70;;;17.30;;
84897;SDS011;75162;42.120;21.734;2024-01-25T03:38:41;33.75;;;17.42;;
84897;SDS011;75162;42.120;21.734;2024-01-25T03:41:08;37.20;;;20.05;;
84897;SDS011;75162;42.120;21.734;2024-01-25T03:43:34;35.47;;;18.50;;
84897;SDS011;75162;42.120;21.734;2024-01-25T03:46:01;34.97;;;18.73;;
84897;SDS011;75162;42.120;21.734;2024-01-25T03:48:28;31.95;;;17.58;;
84897;SDS011;75162;42.120;21.734;2024-01-25T03:50:54;33.47;;;18.25;;
84897;SDS011;75162;42.120;21.734;2024-01-25T03:53:21;31.52;;;17.33;;
84897;SDS011;75162;42.120;21.734;2024-01-25T03:55:48;32.33;;;17.65;;
84897;SDS011;75162;42.120;21.734;2024-01-25T03:58:17;35.42;;;18.58;;
84897;SDS011;75162;42.120;21.734;2024-01-25T04:00:43;32.67;;;17.02;;
84897;SDS011;75162;42.120;21.734;2024-01-25T04:03:10;33.92;;;17.75;;
84897;SDS011;75162;42.120;21.734;2024-01-25T04:05:36;35.80;;;19.20;;
84897;SDS011;75162;42.120;21.734;2024-01-25T04:08:04;34.50;;;18.33;;
84897;SDS011;75162;42.120;21.734;2024-01-25T04:10:30;35.55;;;18.35;;
84897;SDS011;75162;42.120;21.734;2024-01-25T04:12:57;32.20;;;17.73;;
84897;SDS011;75162;42.120;21.734;2024-01-25T04:15:23;37.33;;;17.88;;
84897;SDS011;75162;42.120;21.734;2024-01-25T04:17:49;34.78;;;17.80;;
84897;SDS011;75162;42.120;21.734;2024-01-25T04:20:15;34.03;;;16.48;;
84897;SDS011;75162;42.120;21.734;2024-01-25T04:22:41;37.95;;;18.05;;
84897;SDS011;75162;42.120;21.734;2024-01-25T04:25:07;35.88;;;17.80;;
84897;SDS011;75162;42.120;21.734;2024-01-25T04:27:33;30.85;;;16.30;;
84897;SDS011;75162;42.120;21.734;2024-01-25T04:30:01;31.30;;;17.75;;
84897;SDS011;75162;42.120;21.734;2024-01-25T04:32:28;30.80;;;17.23;;
84897;SDS011;75162;42.120;21.734;2024-01-25T04:34:54;32.92;;;16.98;;
84897;SDS011;75162;42.120;21.734;2024-01-25T04:37:20;33.80;;;16.83;;
84897;SDS011;75162;42.120;21.734;2024-01-25T04:39:47;36.20;;;16.90;;
84897;SDS011;75162;42.120;21.734;2024-01-25T04:42:14;34.28;;;17.85;;
84897;SDS011;75162;42.120;21.734;2024-01-25T04:44:40;36.90;;;18.05;;
84897;SDS011;75162;42.120;21.734;2024-01-25T04:47:06;32.13;;;18.13;;
84897;SDS011;75162;42.120;21.734;2024-01-25T04:49:32;35.50;;;17.00;;
84897;SDS011;75162;42.120;21.734;2024-01-25T04:51:58;36.95;;;17.33;;
84897;SDS011;75162;42.120;21.734;2024-01-25T04:54:25;31.38;;;16.55;;
84897;SDS011;75162;42.120;21.734;2024-01-25T04:56:51;33.78;;;18.92;;
84897;SDS011;75162;42.120;21.734;2024-01-25T04:59:17;35.90;;;20.25;;
84897;SDS011;75162;42.120;21.734;2024-01-25T05:01:43;36.30;;;18.80;;
84897;SDS011;75162;42.120;21.734;2024-01-25T05:04:09;36.60;;;19.23;;
84897;SDS011;75162;42.120;21.734;2024-01-25T05:06:36;34.80;;;18.10;;
84897;SDS011;75162;42.120;21.734;2024-01-25T05:09:02;37.80;;;19.27;;
84897;SDS011;75162;42.120;21.734;2024-01-25T05:11:28;36.05;;;18.27;;
84897;SDS011;75162;42.120;21.734;2024-01-25T05:13:54;38.53;;;18.13;;
84897;SDS011;75162;42.120;21.734;2024-01-25T05:16:20;38.42;;;19.50;;
84897;SDS011;75162;42.120;21.734;2024-01-25T05:18:46;45.50;;;19.65;;
84897;SDS011;75162;42.120;21.734;2024-01-25T05:21:12;35.17;;;19.35;;
84897;SDS011;75162;42.120;21.734;2024-01-25T05:23:38;36.45;;;19.70;;
84897;SDS011;75162;42.120;21.734;2024-01-25T05:26:05;36.20;;;19.52;;
84897;SDS011;75162;42.120;21.734;2024-01-25T05:28:31;41.03;;;20.98;;
84897;SDS011;75162;42.120;21.734;2024-01-25T05:30:57;40.35;;;18.80;;
84897;SDS011;75162;42.120;21.734;2024-01-25T05:33:23;39.38;;;19.17;;
84897;SDS011;75162;42.120;21.734;2024-01-25T05:35:50;36.65;;;19.80;;
84897;SDS011;75162;42.120;21.734;2024-01-25T05:38:16;36.47;;;19.35;;
84897;SDS011;75162;42.120;21.734;2024-01-25T05:40:42;41.88;;;19.25;;
84897;SDS011;75162;42.120;21.734;2024-01-25T05:43:08;36.97;;;19.38;;
84897;SDS011;75162;42.120;21.734;2024-01-25T05:45:34;44.13;;;21.45;;
84897;SDS011;75162;42.120;21.734;2024-01-25T05:48:00;66.70;;;31.60;;
84897;SDS011;75162;42.120;21.734;2024-01-25T05:50:26;95.80;;;41.30;;
84897;SDS011;75162;42.120;21.734;2024-01-25T05:52:52;36.25;;;19.02;;
84897;SDS011;75162;42.120;21.734;2024-01-25T05:55:18;40.10;;;20.35;;
84897;SDS011;75162;42.120;21.734;2024-01-25T05:57:45;41.45;;;22.92;;
84897;SDS011;75162;42.120;21.734;2024-01-25T06:00:11;35.65;;;19.98;;
84897;SDS011;75162;42.120;21.734;2024-01-25T06:02:38;46.15;;;22.13;;
84897;SDS011;75162;42.120;21.734;2024-01-25T06:05:04;51.67;;;26.50;;
84897;SDS011;75162;42.120;21.734;2024-01-25T06:07:30;43.42;;;20.45;;
84897;SDS011;75162;42.120;21.734;2024-01-25T06:09:56;41.08;;;21.45;;
84897;SDS011;75162;42.120;21.734;2024-01-25T06:12:23;50.58;;;24.02;;
84897;SDS011;75162;42.120;21.734;2024-01-25T06:14:49;45.60;;;22.88;;
84897;SDS011;75162;42.120;21.734;2024-01-25T06:17:17;53.67;;;25.13;;
84897;SDS011;75162;42.120;21.734;2024-01-25T06:19:43;57.80;;;27.77;;
84897;SDS011;75162;42.120;21.734;2024-01-25T06:22:09;56.90;;;27.58;;
84897;SDS011;75162;42.120;21.734;2024-01-25T06:24:37;57.60;;;27.95;;
84897;SDS011;75162;42.120;21.734;2024-01-25T06:27:03;61.10;;;29.92;;
84897;SDS011;75162;42.120;21.734;2024-01-25T06:29:29;54.88;;;28.60;;
84897;SDS011;75162;42.120;21.734;2024-01-25T06:31:55;77.00;;;37.75;;
84897;SDS011;75162;42.120;21.734;2024-01-25T06:34:21;143.60;;;60.08;;
84897;SDS011;75162;42.120;21.734;2024-01-25T06:36:48;182.55;;;70.13;;
84897;SDS011;75162;42.120;21.734;2024-01-25T06:39:14;115.68;;;48.65;;
84897;SDS011;75162;42.120;21.734;2024-01-25T06:41:40;58.15;;;29.70;;
84897;SDS011;75162;42.120;21.734;2024-01-25T06:44:07;62.83;;;27.40;;
84897;SDS011;75162;42.120;21.734;2024-01-25T06:46:33;66.85;;;33.88;;
84897;SDS011;75162;42.120;21.734;2024-01-25T06:48:59;60.22;;;32.00;;
84897;SDS011;75162;42.120;21.734;2024-01-25T06:51:25;68.10;;;32.75;;
84897;SDS011;75162;42.120;21.734;2024-01-25T06:53:52;68.63;;;33.33;;
84897;SDS011;75162;42.120;21.734;2024-01-25T06:56:18;59.42;;;32.53;;
84897;SDS011;75162;42.120;21.734;2024-01-25T06:58:44;74.88;;;35.80;;
84897;SDS011;75162;42.120;21.734;2024-01-25T07:01:10;76.70;;;35.83;;
84897;SDS011;75162;42.120;21.734;2024-01-25T07:03:36;74.22;;;38.10;;
84897;SDS011;75162;42.120;21.734;2024-01-25T07:06:03;63.78;;;31.35;;
84897;SDS011;75162;42.120;21.734;2024-01-25T07:08:29;50.90;;;27.33;;
84897;SDS011;75162;42.120;21.734;2024-01-25T07:10:55;62.78;;;31.65;;
84897;SDS011;75162;42.120;21.734;2024-01-25T07:13:21;111.50;;;53.13;;
84897;SDS011;75162;42.120;21.734;2024-01-25T07:15:47;138.25;;;60.88;;
84897;SDS011;75162;42.120;21.734;2024-01-25T07:18:13;111.50;;;47.05;;
84897;SDS011;75162;42.120;21.734;2024-01-25T07:20:39;74.28;;;35.67;;
84897;SDS011;75162;42.120;21.734;2024-01-25T07:23:06;83.03;;;40.25;;
84897;SDS011;75162;42.120;21.734;2024-01-25T07:25:32;93.78;;;46.05;;
84897;SDS011;75162;42.120;21.734;2024-01-25T07:27:58;93.30;;;48.50;;
84897;SDS011;75162;42.120;21.734;2024-01-25T07:30:24;91.22;;;51.33;;
84897;SDS011;75162;42.120;21.734;2024-01-25T07:32:50;83.30;;;41.70;;
84897;SDS011;75162;42.120;21.734;2024-01-25T07:35:16;74.57;;;41.20;;
84897;SDS011;75162;42.120;21.734;2024-01-25T07:37:42;93.15;;;53.20;;
84897;SDS011;75162;42.120;21.734;2024-01-25T07:40:09;84.20;;;47.30;;
84897;SDS011;75162;42.120;21.734;2024-01-25T07:42:35;86.10;;;44.90;;
84897;SDS011;75162;42.120;21.734;2024-01-25T07:45:02;147.70;;;71.53;;
84897;SDS011;75162;42.120;21.734;2024-01-25T07:47:28;135.57;;;64.10;;
84897;SDS011;75162;42.120;21.734;2024-01-25T07:49:55;144.30;;;74.05;;
84897;SDS011;75162;42.120;21.734;2024-01-25T07:52:21;135.07;;;70.32;;
84897;SDS011;75162;42.120;21.734;2024-01-25T07:54:47;101.60;;;49.88;;
84897;SDS011;75162;42.120;21.734;2024-01-25T07:57:13;80.13;;;36.03;;
84897;SDS011;75162;42.120;21.734;2024-01-25T07:59:39;90.93;;;46.92;;
84897;SDS011;75162;42.120;21.734;2024-01-25T08:02:05;94.60;;;49.33;;
84897;SDS011;75162;42.120;21.734;2024-01-25T08:04:31;94.32;;;50.67;;
84897;SDS011;75162;42.120;21.734;2024-01-25T08:06:58;125.07;;;60.17;;
84897;SDS011;75162;42.120;21.734;2024-01-25T08:09:24;112.20;;;58.38;;
84897;SDS011;75162;42.120;21.734;2024-01-25T08:11:50;92.82;;;49.45;;
84897;SDS011;75162;42.120;21.734;2024-01-25T08:14:16;96.53;;;50.72;;
84897;SDS011;75162;42.120;21.734;2024-01-25T08:16:43;78.85;;;42.72;;
84897;SDS011;75162;42.120;21.734;2024-01-25T08:19:09;89.53;;;48.25;;
84897;SDS011;75162;42.120;21.734;2024-01-25T08:21:35;73.30;;;41.13;;
84897;SDS011;75162;42.120;21.734;2024-01-25T08:24:02;66.35;;;37.70;;
84897;SDS011;75162;42.120;21.734;2024-01-25T08:26:29;63.90;;;35.22;;
84897;SDS011;75162;42.120;21.734;2024-01-25T08:28:55;55.00;;;31.00;;
84897;SDS011;75162;42.120;21.734;2024-01-25T08:31:21;50.38;;;29.40;;
84897;SDS011;75162;42.120;21.734;2024-01-25T08:33:48;56.85;;;28.88;;
84897;SDS011;75162;42.120;21.734;2024-01-25T08:36:17;58.72;;;31.05;;
84897;SDS011;75162;42.120;21.734;2024-01-25T08:38:44;52.90;;;31.23;;
84897;SDS011;75162;42.120;21.734;2024-01-25T08:41:10;55.63;;;30.25;;
84897;SDS011;75162;42.120;21.734;2024-01-25T08:43:36;54.28;;;30.10;;
84897;SDS011;75162;42.120;21.734;2024-01-25T08:46:02;56.80;;;28.83;;
84897;SDS011;75162;42.120;21.734;2024-01-25T08:48:29;70.47;;;37.65;;
84897;SDS011;75162;42.120;21.734;2024-01-25T08:50:55;44.22;;;25.75;;
84897;SDS011;75162;42.120;21.734;2024-01-25T08:53:21;45.83;;;23.63;;
84897;SDS011;75162;42.120;21.734;2024-01-25T08:55:52;47.13;;;25.00;;
84897;SDS011;75162;42.120;21.734;2024-01-25T08:58:18;46.30;;;26.25;;
84897;SDS011;75162;42.120;21.734;2024-01-25T09:00:45;45.95;;;26.15;;
84897;SDS011;75162;42.120;21.734;2024-01-25T09:03:11;46.75;;;27.75;;
84897;SDS011;75162;42.120;21.734;2024-01-25T09:05:37;54.10;;;28.67;;
84897;SDS011;75162;42.120;21.734;2024-01-25T09:08:10;55.80;;;29.35;;
84897;SDS011;75162;42.120;21.734;2024-01-25T09:10:36;63.67;;;33.80;;
84897;SDS011;75162;42.120;21.734;2024-01-25T09:13:03;55.15;;;32.80;;
84897;SDS011;75162;42.120;21.734;2024-01-25T09:15:29;61.90;;;34.17;;
84897;SDS011;75162;42.120;21.734;2024-01-25T09:17:55;61.50;;;34.85;;
84897;SDS011;75162;42.120;21.734;2024-01-25T09:20:21;77.20;;;39.20;;
84897;SDS011;75162;42.120;21.734;2024-01-25T09:22:47;72.07;;;38.83;;
84897;SDS011;75162;42.120;21.734;2024-01-25T09:25:13;86.70;;;40.03;;
84897;SDS011;75162;42.120;21.734;2024-01-25T09:27:40;74.85;;;40.20;;
84897;SDS011;75162;42.120;21.734;2024-01-25T09:30:06;73.43;;;38.53;;
84897;SDS011;75162;42.120;21.734;2024-01-25T09:32:33;71.55;;;37.83;;
84897;SDS011;75162;42.120;21.734;2024-01-25T09:34:59;80.97;;;38.05;;
84897;SDS011;75162;42.120;21.734;2024-01-25T09:37:25;60.58;;;32.00;;
84897;SDS011;75162;42.120;21.734;2024-01-25T09:39:51;65.70;;;35.28;;
84897;SDS011;75162;42.120;21.734;2024-01-25T09:42:18;68.03;;;36.67;;
84897;SDS011;75162;42.120;21.734;2024-01-25T09:44:44;67.20;;;35.53;;
84897;SDS011;75162;42.120;21.734;2024-01-25T09:47:11;69.13;;;35.13;;
84897;SDS011;75162;42.120;21.734;2024-01-25T09:49:38;67.75;;;34.85;;
84897;SDS011;75162;42.120;21.734;2024-01-25T09:52:05;74.10;;;37.85;;
84897;SDS011;75162;42.120;21.734;2024-01-25T09:54:32;100.40;;;48.60;;
84897;SDS011;75162;42.120;21.734;2024-01-25T09:57:00;75.40;;;41.50;;
84897;SDS011;75162;42.120;21.734;2024-01-25T09:59:27;75.07;;;38.60;;
84897;SDS011;75162;42.120;21.734;2024-01-25T10:01:53;60.28;;;35.25;;
84897;SDS011;75162;42.120;21.734;2024-01-25T10:04:20;72.93;;;36.75;;
84897;SDS011;75162;42.120;21.734;2024-01-25T10:06:48;57.38;;;33.05;;
84897;SDS011;75162;42.120;21.734;2024-01-25T10:09:14;61.47;;;33.75;;
84897;SDS011;75162;42.120;21.734;2024-01-25T10:11:41;65.40;;;32.42;;
84897;SDS011;75162;42.120;21.734;2024-01-25T10:14:07;70.43;;;35.83;;
84897;SDS011;75162;42.120;21.734;2024-01-25T10:16:33;81.00;;;40.50;;
84897;SDS011;75162;42.120;21.734;2024-01-25T10:19:00;83.32;;;42.13;;
84897;SDS011;75162;42.120;21.734;2024-01-25T10:21:30;89.55;;;48.10;;
84897;SDS011;75162;42.120;21.734;2024-01-25T10:23:56;71.88;;;39.00;;
84897;SDS011;75162;42.120;21.734;2024-01-25T10:26:26;80.68;;;43.60;;
84897;SDS011;75162;42.120;21.734;2024-01-25T10:28:55;106.72;;;60.70;;
84897;SDS011;75162;42.120;21.734;2024-01-25T10:31:24;91.50;;;49.30;;
84897;SDS011;75162;42.120;21.734;2024-01-25T10:33:53;79.22;;;45.60;;
84897;SDS011;75162;42.120;21.734;2024-01-25T10:36:23;93.28;;;46.38;;
84897;SDS011;75162;42.120;21.734;2024-01-25T10:38:49;93.53;;;49.63;;
84897;SDS011;75162;42.120;21.734;2024-01-25T10:41:16;125.20;;;57.75;;
84897;SDS011;75162;42.120;21.734;2024-01-25T10:43:42;121.88;;;64.65;;
84897;SDS011;75162;42.120;21.734;2024-01-25T10:46:08;135.57;;;72.45;;
84897;SDS011;75162;42.120;21.734;2024-01-25T10:48:34;149.40;;;79.88;;
84897;SDS011;75162;42.120;21.734;2024-01-25T10:51:01;137.23;;;74.25;;
84897;SDS011;75162;42.120;21.734;2024-01-25T10:53:33;116.15;;;65.63;;
84897;SDS011;75162;42.120;21.734;2024-01-25T10:56:00;117.28;;;64.97;;
84897;SDS011;75162;42.120;21.734;2024-01-25T10:58:30;107.07;;;57.90;;
84897;SDS011;75162;42.120;21.734;2024-01-25T11:00:57;103.53;;;56.42;;
84897;SDS011;75162;42.120;21.734;2024-01-25T11:03:29;101.13;;;57.17;;
84897;SDS011;75162;42.120;21.734;2024-01-25T11:08:34;92.03;;;49.90;;
84897;SDS011;75162;42.120;21.734;2024-01-25T11:11:03;57.15;;;32.58;;
84897;SDS011;75162;42.120;21.734;2024-01-25T11:13:29;71.75;;;37.63;;
84897;SDS011;75162;42.120;21.734;2024-01-25T11:15:57;63.00;;;33.42;;
84897;SDS011;75162;42.120;21.734;2024-01-25T11:18:27;69.53;;;35.00;;
84897;SDS011;75162;42.120;21.734;2024-01-25T11:20:53;69.22;;;36.45;;
84897;SDS011;75162;42.120;21.734;2024-01-25T11:23:22;57.08;;;30.17;;
84897;SDS011;75162;42.120;21.734;2024-01-25T11:25:48;62.58;;;31.20;;
84897;SDS011;75162;42.120;21.734;2024-01-25T11:28:14;64.68;;;32.85;;
84897;SDS011;75162;42.120;21.734;2024-01-25T11:30:41;32.72;;;14.68;;
84897;SDS011;75162;42.120;21.734;2024-01-25T11:33:07;16.85;;;8.23;;
84897;SDS011;75162;42.120;21.734;2024-01-25T11:35:36;13.85;;;6.03;;
84897;SDS011;75162;42.120;21.734;2024-01-25T11:38:03;18.13;;;9.27;;
84897;SDS011;75162;42.120;21.734;2024-01-25T11:40:29;19.58;;;8.90;;
84897;SDS011;75162;42.120;21.734;2024-01-25T11:42:56;19.42;;;9.13;;
84897;SDS011;75162;42.120;21.734;2024-01-25T11:45:22;17.08;;;7.70;;
84897;SDS011;75162;42.120;21.734;2024-01-25T11:47:49;10.90;;;5.50;;
84897;SDS011;75162;42.120;21.734;2024-01-25T11:50:15;15.07;;;5.93;;
84897;SDS011;75162;42.120;21.734;2024-01-25T11:52:41;14.60;;;7.30;;
84897;SDS011;75162;42.120;21.734;2024-01-25T11:55:08;16.17;;;6.05;;
84897;SDS011;75162;42.120;21.734;2024-01-25T12:00:01;12.77;;;5.65;;
84897;SDS011;75162;42.120;21.734;2024-01-25T12:02:27;15.88;;;7.25;;
84897;SDS011;75162;42.120;21.734;2024-01-25T12:04:56;17.10;;;6.90;;
84897;SDS011;75162;42.120;21.734;2024-01-25T12:07:22;15.13;;;6.97;;
84897;SDS011;75162;42.120;21.734;2024-01-25T12:09:58;15.93;;;7.13;;
84897;SDS011;75162;42.120;21.734;2024-01-25T12:12:24;15.60;;;6.43;;
84897;SDS011;75162;42.120;21.734;2024-01-25T12:14:50;19.48;;;5.45;;
84897;SDS011;75162;42.120;21.734;2024-01-25T12:17:17;17.02;;;7.10;;
84897;SDS011;75162;42.120;21.734;2024-01-25T12:19:43;16.27;;;6.70;;
84897;SDS011;75162;42.120;21.734;2024-01-25T12:22:09;17.90;;;7.57;;
84897;SDS011;75162;42.120;21.734;2024-01-25T12:24:35;15.27;;;6.32;;
84897;SDS011;75162;42.120;21.734;2024-01-25T12:27:02;18.98;;;7.20;;
84897;SDS011;75162;42.120;21.734;2024-01-25T12:29:28;20.05;;;7.03;;
84897;SDS011;75162;42.120;21.734;2024-01-25T12:31:54;18.55;;;6.00;;
84897;SDS011;75162;42.120;21.734;2024-01-25T12:34:20;20.50;;;7.68;;
84897;SDS011;75162;42.120;21.734;2024-01-25T12:36:46;23.42;;;8.88;;
84897;SDS011;75162;42.120;21.734;2024-01-25T12:39:12;28.23;;;9.45;;
84897;SDS011;75162;42.120;21.734;2024-01-25T12:41:40;23.10;;;10.15;;
84897;SDS011;75162;42.120;21.734;2024-01-25T12:44:06;23.67;;;8.32;;
84897;SDS011;75162;42.120;21.734;2024-01-25T12:46:32;20.60;;;8.57;;
84897;SDS011;75162;42.120;21.734;2024-01-25T12:48:58;32.95;;;13.10;;
84897;SDS011;75162;42.120;21.734;2024-01-25T12:51:25;21.58;;;9.32;;
84897;SDS011;75162;42.120;21.734;2024-01-25T12:53:51;23.20;;;10.13;;
84897;SDS011;75162;42.120;21.734;2024-01-25T12:56:17;25.88;;;8.93;;
84897;SDS011;75162;42.120;21.734;2024-01-25T12:58:43;16.13;;;7.63;;
84897;SDS011;75162;42.120;21.734;2024-01-25T13:01:09;25.83;;;11.93;;
84897;SDS011;75162;42.120;21.734;2024-01-25T13:03:36;25.67;;;11.40;;
84897;SDS011;75162;42.120;21.734;2024-01-25T13:06:02;21.80;;;10.35;;
84897;SDS011;75162;42.120;21.734;2024-01-25T13:08:28;27.15;;;12.35;;
84897;SDS011;75162;42.120;21.734;2024-01-25T13:10:54;22.55;;;11.07;;
84897;SDS011;75162;42.120;21.734;2024-01-25T13:13:20;13.02;;;6.10;;
84897;SDS011;75162;42.120;21.734;2024-01-25T13:15:46;17.33;;;7.97;;
84897;SDS011;75162;42.120;21.734;2024-01-25T13:18:13;14.15;;;5.78;;
84897;SDS011;75162;42.120;21.734;2024-01-25T13:20:39;19.08;;;6.90;;
84897;SDS011;75162;42.120;21.734;2024-01-25T13:23:05;20.65;;;6.97;;
84897;SDS011;75162;42.120;21.734;2024-01-25T13:25:32;19.40;;;8.93;;
84897;SDS011;75162;42.120;21.734;2024-01-25T13:27:59;19.60;;;8.75;;
84897;SDS011;75162;42.120;21.734;2024-01-25T13:30:25;23.50;;;10.75;;
84897;SDS011;75162;42.120;21.734;2024-01-25T13:32:51;19.55;;;10.18;;
84897;SDS011;75162;42.120;21.734;2024-01-25T13:35:17;15.55;;;7.68;;
84897;SDS011;75162;42.120;21.734;2024-01-25T13:37:43;18.02;;;9.20;;
84897;SDS011;75162;42.120;21.734;2024-01-25T13:40:09;15.52;;;8.20;;
84897;SDS011;75162;42.120;21.734;2024-01-25T13:42:36;72.43;;;33.33;;
84897;SDS011;75162;42.120;21.734;2024-01-25T13:45:02;24.27;;;12.13;;
84897;SDS011;75162;42.120;21.734;2024-01-25T13:47:28;22.25;;;11.20;;
84897;SDS011;75162;42.120;21.734;2024-01-25T13:49:54;16.40;;;9.35;;
84897;SDS011;75162;42.120;21.734;2024-01-25T13:52:20;20.30;;;11.05;;
84897;SDS011;75162;42.120;21.734;2024-01-25T13:54:47;22.92;;;9.65;;
84897;SDS011;75162;42.120;21.734;2024-01-25T13:57:16;20.08;;;10.73;;
84897;SDS011;75162;42.120;21.734;2024-01-25T13:59:42;32.75;;;15.48;;
84897;SDS011;75162;42.120;21.734;2024-01-25T14:02:08;20.58;;;10.05;;
84897;SDS011;75162;42.120;21.734;2024-01-25T14:04:34;41.70;;;16.77;;
84897;SDS011;75162;42.120;21.734;2024-01-25T14:07:00;20.10;;;9.98;;
84897;SDS011;75162;42.120;21.734;2024-01-25T14:09:27;25.27;;;10.43;;